EDAC/ADC METAR and TAF weather

Enter ICAO airport designator
Station Type Date Time Source
EDAC METAR 2019/08/24 19:50 UTC NOAA

EDAC 241950Z AUTO 09005KT 9999 // NCD 23/16 Q1021


Station Type Date Time Source
EDAC Decoded METAR 2019/08/24 19:50 UTC NOAA

Station name not available
Aug 24, 2019 - 03:50 PM EDT / 2019.08.24 1950 UTC
Wind: from the E (090 degrees) at 6 MPH (5 KT):0
Visibility: greater than 7 mile(s):0
Temperature: 73 F (23 C)
Dew Point: 60 F (16 C)
Relative Humidity: 64%
Pressure (altimeter): 30.15 in. Hg (1021 hPa)
ob: EDAC 241950Z AUTO 09005KT 9999 // NCD 23/16 Q1021
cycle: 20

Station Type Date Time Source
EDAC TAF UTC NOAA

Error!

Example: see airport list